sensor_id;sensor_type;location;lat;lon;timestamp;P1;durP1;ratioP1;P2;durP2;ratioP2
7905;SDS011;13291;40.472;-3.878;2022-09-16T00:00:31;1.37;;;0.70;;
7905;SDS011;13291;40.472;-3.878;2022-09-16T00:02:59;1.50;;;1.00;;
7905;SDS011;13291;40.472;-3.878;2022-09-16T00:05:25;1.00;;;0.90;;
7905;SDS011;13291;40.472;-3.878;2022-09-16T00:07:53;1.47;;;0.80;;
7905;SDS011;13291;40.472;-3.878;2022-09-16T00:10:20;1.07;;;0.73;;
7905;SDS011;13291;40.472;-3.878;2022-09-16T00:12:48;2.07;;;0.90;;
7905;SDS011;13291;40.472;-3.878;2022-09-16T00:15:16;1.90;;;1.13;;
7905;SDS011;13291;40.472;-3.878;2022-09-16T00:17:43;3.40;;;0.90;;
7905;SDS011;13291;40.472;-3.878;2022-09-16T00:20:10;1.10;;;0.87;;
7905;SDS011;13291;40.472;-3.878;2022-09-16T00:22:37;1.90;;;0.90;;
7905;SDS011;13291;40.472;-3.878;2022-09-16T00:25:04;3.73;;;1.10;;
7905;SDS011;13291;40.472;-3.878;2022-09-16T00:27:32;1.23;;;1.00;;
7905;SDS011;13291;40.472;-3.878;2022-09-16T00:30:00;1.67;;;1.00;;
7905;SDS011;13291;40.472;-3.878;2022-09-16T00:32:27;1.10;;;0.90;;
7905;SDS011;13291;40.472;-3.878;2022-09-16T00:34:54;1.47;;;0.90;;
7905;SDS011;13291;40.472;-3.878;2022-09-16T00:37:20;1.80;;;1.10;;
7905;SDS011;13291;40.472;-3.878;2022-09-16T00:39:47;1.23;;;1.00;;
7905;SDS011;13291;40.472;-3.878;2022-09-16T00:42:15;2.33;;;1.23;;
7905;SDS011;13291;40.472;-3.878;2022-09-16T00:44:57;3.97;;;1.03;;
7905;SDS011;13291;40.472;-3.878;2022-09-16T00:47:29;1.63;;;1.10;;
7905;SDS011;13291;40.472;-3.878;2022-09-16T00:50:02;1.87;;;1.30;;
7905;SDS011;13291;40.472;-3.878;2022-09-16T00:52:32;2.03;;;1.10;;
7905;SDS011;13291;40.472;-3.878;2022-09-16T00:55:00;1.87;;;1.37;;
7905;SDS011;13291;40.472;-3.878;2022-09-16T00:57:31;2.17;;;0.77;;
7905;SDS011;13291;40.472;-3.878;2022-09-16T00:59:59;1.00;;;0.70;;
7905;SDS011;13291;40.472;-3.878;2022-09-16T01:02:27;1.30;;;0.87;;
7905;SDS011;13291;40.472;-3.878;2022-09-16T01:04:56;1.30;;;0.80;;
7905;SDS011;13291;40.472;-3.878;2022-09-16T01:07:29;1.10;;;0.63;;
7905;SDS011;13291;40.472;-3.878;2022-09-16T01:09:59;1.43;;;0.80;;
7905;SDS011;13291;40.472;-3.878;2022-09-16T01:12:27;1.50;;;1.00;;
7905;SDS011;13291;40.472;-3.878;2022-09-16T01:14:56;1.00;;;0.67;;
7905;SDS011;13291;40.472;-3.878;2022-09-16T01:17:26;1.67;;;0.80;;
7905;SDS011;13291;40.472;-3.878;2022-09-16T01:20:09;1.57;;;0.77;;
7905;SDS011;13291;40.472;-3.878;2022-09-16T01:22:59;1.20;;;0.83;;
7905;SDS011;13291;40.472;-3.878;2022-09-16T01:25:40;1.20;;;1.00;;
7905;SDS011;13291;40.472;-3.878;2022-09-16T01:28:22;1.63;;;1.00;;
7905;SDS011;13291;40.472;-3.878;2022-09-16T01:31:06;2.50;;;0.90;;
7905;SDS011;13291;40.472;-3.878;2022-09-16T01:33:40;1.87;;;1.20;;
7905;SDS011;13291;40.472;-3.878;2022-09-16T01:36:24;2.90;;;0.77;;
7905;SDS011;13291;40.472;-3.878;2022-09-16T01:39:02;0.83;;;0.63;;
7905;SDS011;13291;40.472;-3.878;2022-09-16T01:41:37;5.33;;;0.80;;
7905;SDS011;13291;40.472;-3.878;2022-09-16T01:44:13;1.13;;;0.80;;
7905;SDS011;13291;40.472;-3.878;2022-09-16T01:46:53;2.53;;;0.70;;
7905;SDS011;13291;40.472;-3.878;2022-09-16T01:49:30;0.80;;;0.60;;
7905;SDS011;13291;40.472;-3.878;2022-09-16T01:52:09;1.13;;;0.67;;
7905;SDS011;13291;40.472;-3.878;2022-09-16T01:54:46;0.70;;;0.60;;
7905;SDS011;13291;40.472;-3.878;2022-09-16T01:57:17;2.27;;;0.80;;
7905;SDS011;13291;40.472;-3.878;2022-09-16T01:59:48;0.90;;;0.63;;
7905;SDS011;13291;40.472;-3.878;2022-09-16T02:02:22;1.10;;;0.60;;
7905;SDS011;13291;40.472;-3.878;2022-09-16T02:04:52;1.43;;;0.43;;
7905;SDS011;13291;40.472;-3.878;2022-09-16T02:07:22;1.50;;;0.73;;
7905;SDS011;13291;40.472;-3.878;2022-09-16T02:09:55;0.83;;;0.63;;
7905;SDS011;13291;40.472;-3.878;2022-09-16T02:12:29;1.73;;;0.73;;
7905;SDS011;13291;40.472;-3.878;2022-09-16T02:15:02;1.70;;;0.70;;
7905;SDS011;13291;40.472;-3.878;2022-09-16T02:17:35;2.30;;;0.77;;
7905;SDS011;13291;40.472;-3.878;2022-09-16T02:20:05;6.73;;;0.63;;
7905;SDS011;13291;40.472;-3.878;2022-09-16T02:22:35;2.00;;;0.70;;
7905;SDS011;13291;40.472;-3.878;2022-09-16T02:25:06;1.60;;;0.57;;
7905;SDS011;13291;40.472;-3.878;2022-09-16T02:27:36;2.50;;;0.67;;
7905;SDS011;13291;40.472;-3.878;2022-09-16T02:30:06;1.83;;;0.63;;
7905;SDS011;13291;40.472;-3.878;2022-09-16T02:32:38;0.93;;;0.50;;
7905;SDS011;13291;40.472;-3.878;2022-09-16T02:35:10;4.97;;;0.80;;
7905;SDS011;13291;40.472;-3.878;2022-09-16T02:37:44;1.37;;;0.80;;
7905;SDS011;13291;40.472;-3.878;2022-09-16T02:40:16;0.70;;;0.60;;
7905;SDS011;13291;40.472;-3.878;2022-09-16T02:42:45;4.23;;;0.90;;
7905;SDS011;13291;40.472;-3.878;2022-09-16T02:45:12;0.93;;;0.80;;
7905;SDS011;13291;40.472;-3.878;2022-09-16T02:47:42;0.70;;;0.70;;
7905;SDS011;13291;40.472;-3.878;2022-09-16T02:50:20;1.03;;;0.67;;
7905;SDS011;13291;40.472;-3.878;2022-09-16T02:52:55;1.63;;;0.70;;
7905;SDS011;13291;40.472;-3.878;2022-09-16T02:55:28;2.10;;;0.70;;
7905;SDS011;13291;40.472;-3.878;2022-09-16T02:58:03;2.30;;;0.63;;
7905;SDS011;13291;40.472;-3.878;2022-09-16T03:00:30;0.73;;;0.60;;
7905;SDS011;13291;40.472;-3.878;2022-09-16T03:03:02;0.80;;;0.70;;
7905;SDS011;13291;40.472;-3.878;2022-09-16T03:05:29;0.80;;;0.73;;
7905;SDS011;13291;40.472;-3.878;2022-09-16T03:07:56;1.00;;;0.70;;
7905;SDS011;13291;40.472;-3.878;2022-09-16T03:10:26;1.00;;;0.80;;
7905;SDS011;13291;40.472;-3.878;2022-09-16T03:13:00;2.20;;;0.60;;
7905;SDS011;13291;40.472;-3.878;2022-09-16T03:15:47;2.80;;;1.00;;
7905;SDS011;13291;40.472;-3.878;2022-09-16T03:18:31;1.90;;;0.70;;
7905;SDS011;13291;40.472;-3.878;2022-09-16T03:21:16;1.87;;;0.77;;
7905;SDS011;13291;40.472;-3.878;2022-09-16T03:23:52;1.10;;;0.83;;
7905;SDS011;13291;40.472;-3.878;2022-09-16T03:26:28;1.50;;;0.83;;
7905;SDS011;13291;40.472;-3.878;2022-09-16T03:29:04;1.57;;;0.70;;
7905;SDS011;13291;40.472;-3.878;2022-09-16T03:31:39;1.53;;;0.73;;
7905;SDS011;13291;40.472;-3.878;2022-09-16T03:34:14;1.03;;;0.70;;
7905;SDS011;13291;40.472;-3.878;2022-09-16T03:36:48;2.30;;;1.10;;
7905;SDS011;13291;40.472;-3.878;2022-09-16T03:39:18;2.40;;;1.10;;
7905;SDS011;13291;40.472;-3.878;2022-09-16T03:41:46;1.70;;;0.90;;
7905;SDS011;13291;40.472;-3.878;2022-09-16T03:44:13;1.60;;;0.90;;
7905;SDS011;13291;40.472;-3.878;2022-09-16T03:46:40;1.57;;;0.80;;
7905;SDS011;13291;40.472;-3.878;2022-09-16T03:49:07;1.30;;;0.83;;
7905;SDS011;13291;40.472;-3.878;2022-09-16T03:51:36;2.70;;;0.70;;
7905;SDS011;13291;40.472;-3.878;2022-09-16T03:54:03;0.73;;;0.63;;
7905;SDS011;13291;40.472;-3.878;2022-09-16T03:56:30;2.00;;;0.80;;
7905;SDS011;13291;40.472;-3.878;2022-09-16T03:58:57;1.20;;;0.80;;
7905;SDS011;13291;40.472;-3.878;2022-09-16T04:01:24;1.97;;;1.10;;
7905;SDS011;13291;40.472;-3.878;2022-09-16T04:03:50;2.23;;;0.70;;
7905;SDS011;13291;40.472;-3.878;2022-09-16T04:06:17;1.17;;;0.80;;
7905;SDS011;13291;40.472;-3.878;2022-09-16T04:08:46;2.10;;;1.53;;
7905;SDS011;13291;40.472;-3.878;2022-09-16T04:11:14;3.13;;;1.67;;
7905;SDS011;13291;40.472;-3.878;2022-09-16T04:13:42;3.50;;;2.07;;
7905;SDS011;13291;40.472;-3.878;2022-09-16T04:16:08;2.00;;;1.50;;
7905;SDS011;13291;40.472;-3.878;2022-09-16T04:18:35;2.63;;;1.90;;
7905;SDS011;13291;40.472;-3.878;2022-09-16T04:21:02;3.80;;;2.27;;
7905;SDS011;13291;40.472;-3.878;2022-09-16T04:23:30;2.30;;;1.90;;
7905;SDS011;13291;40.472;-3.878;2022-09-16T04:25:59;2.47;;;1.60;;
7905;SDS011;13291;40.472;-3.878;2022-09-16T04:28:27;2.30;;;1.50;;
7905;SDS011;13291;40.472;-3.878;2022-09-16T04:30:57;1.83;;;1.20;;
7905;SDS011;13291;40.472;-3.878;2022-09-16T04:33:26;1.57;;;1.47;;
7905;SDS011;13291;40.472;-3.878;2022-09-16T04:35:53;1.73;;;1.20;;
7905;SDS011;13291;40.472;-3.878;2022-09-16T04:38:26;1.70;;;1.47;;
7905;SDS011;13291;40.472;-3.878;2022-09-16T04:40:59;2.13;;;1.23;;
7905;SDS011;13291;40.472;-3.878;2022-09-16T04:43:26;2.30;;;1.10;;
7905;SDS011;13291;40.472;-3.878;2022-09-16T04:45:53;1.20;;;1.00;;
7905;SDS011;13291;40.472;-3.878;2022-09-16T04:48:20;2.80;;;1.07;;
7905;SDS011;13291;40.472;-3.878;2022-09-16T04:50:47;0.87;;;0.70;;
7905;SDS011;13291;40.472;-3.878;2022-09-16T04:53:14;1.57;;;1.07;;
7905;SDS011;13291;40.472;-3.878;2022-09-16T04:55:41;2.60;;;0.70;;
7905;SDS011;13291;40.472;-3.878;2022-09-16T04:58:09;0.87;;;0.83;;
7905;SDS011;13291;40.472;-3.878;2022-09-16T05:00:36;3.50;;;0.90;;
7905;SDS011;13291;40.472;-3.878;2022-09-16T05:03:03;1.40;;;0.60;;
7905;SDS011;13291;40.472;-3.878;2022-09-16T05:05:30;4.00;;;1.10;;
7905;SDS011;13291;40.472;-3.878;2022-09-16T05:07:57;1.10;;;0.77;;
7905;SDS011;13291;40.472;-3.878;2022-09-16T05:10:24;1.00;;;0.70;;
7905;SDS011;13291;40.472;-3.878;2022-09-16T05:12:52;2.50;;;0.77;;
7905;SDS011;13291;40.472;-3.878;2022-09-16T05:15:21;2.20;;;0.70;;
7905;SDS011;13291;40.472;-3.878;2022-09-16T05:17:47;1.63;;;0.90;;
7905;SDS011;13291;40.472;-3.878;2022-09-16T05:20:14;1.00;;;0.80;;
7905;SDS011;13291;40.472;-3.878;2022-09-16T05:22:41;2.97;;;0.80;;
7905;SDS011;13291;40.472;-3.878;2022-09-16T05:25:08;1.03;;;0.70;;
7905;SDS011;13291;40.472;-3.878;2022-09-16T05:27:35;1.30;;;0.90;;
7905;SDS011;13291;40.472;-3.878;2022-09-16T05:30:02;2.10;;;1.03;;
7905;SDS011;13291;40.472;-3.878;2022-09-16T05:32:31;2.10;;;0.70;;
7905;SDS011;13291;40.472;-3.878;2022-09-16T05:34:58;2.20;;;1.03;;
7905;SDS011;13291;40.472;-3.878;2022-09-16T05:37:25;1.40;;;0.70;;
7905;SDS011;13291;40.472;-3.878;2022-09-16T05:39:52;2.00;;;0.73;;
7905;SDS011;13291;40.472;-3.878;2022-09-16T05:42:19;1.70;;;0.90;;
7905;SDS011;13291;40.472;-3.878;2022-09-16T05:44:46;1.40;;;0.80;;
7905;SDS011;13291;40.472;-3.878;2022-09-16T05:47:13;2.20;;;1.00;;
7905;SDS011;13291;40.472;-3.878;2022-09-16T05:49:41;2.40;;;0.90;;
7905;SDS011;13291;40.472;-3.878;2022-09-16T05:52:08;1.83;;;0.87;;
7905;SDS011;13291;40.472;-3.878;2022-09-16T05:54:35;1.60;;;1.00;;
7905;SDS011;13291;40.472;-3.878;2022-09-16T05:57:01;2.37;;;1.00;;
7905;SDS011;13291;40.472;-3.878;2022-09-16T05:59:29;2.50;;;1.00;;
7905;SDS011;13291;40.472;-3.878;2022-09-16T06:01:56;1.27;;;1.00;;
7905;SDS011;13291;40.472;-3.878;2022-09-16T06:04:22;2.97;;;0.73;;
7905;SDS011;13291;40.472;-3.878;2022-09-16T06:06:51;2.20;;;1.00;;
7905;SDS011;13291;40.472;-3.878;2022-09-16T06:09:18;5.87;;;1.20;;
7905;SDS011;13291;40.472;-3.878;2022-09-16T06:11:47;1.60;;;1.07;;
7905;SDS011;13291;40.472;-3.878;2022-09-16T06:14:15;2.30;;;1.27;;
7905;SDS011;13291;40.472;-3.878;2022-09-16T06:16:43;2.80;;;1.90;;
7905;SDS011;13291;40.472;-3.878;2022-09-16T06:19:11;2.40;;;1.20;;
7905;SDS011;13291;40.472;-3.878;2022-09-16T06:21:39;5.83;;;2.00;;
7905;SDS011;13291;40.472;-3.878;2022-09-16T06:24:09;3.33;;;1.67;;
7905;SDS011;13291;40.472;-3.878;2022-09-16T06:26:37;2.57;;;1.73;;
7905;SDS011;13291;40.472;-3.878;2022-09-16T06:29:05;3.57;;;1.53;;
7905;SDS011;13291;40.472;-3.878;2022-09-16T06:31:33;6.00;;;1.00;;
7905;SDS011;13291;40.472;-3.878;2022-09-16T06:34:00;4.10;;;1.00;;
7905;SDS011;13291;40.472;-3.878;2022-09-16T06:36:27;1.47;;;1.10;;
7905;SDS011;13291;40.472;-3.878;2022-09-16T06:38:55;1.47;;;1.03;;
7905;SDS011;13291;40.472;-3.878;2022-09-16T06:41:24;1.30;;;1.10;;
7905;SDS011;13291;40.472;-3.878;2022-09-16T06:43:51;3.70;;;0.90;;
7905;SDS011;13291;40.472;-3.878;2022-09-16T06:46:18;1.57;;;1.10;;
7905;SDS011;13291;40.472;-3.878;2022-09-16T06:48:47;1.50;;;0.90;;
7905;SDS011;13291;40.472;-3.878;2022-09-16T06:51:15;3.63;;;1.37;;
7905;SDS011;13291;40.472;-3.878;2022-09-16T06:53:43;9.63;;;1.67;;
7905;SDS011;13291;40.472;-3.878;2022-09-16T06:56:11;1.90;;;1.23;;
7905;SDS011;13291;40.472;-3.878;2022-09-16T06:58:41;4.90;;;1.57;;
7905;SDS011;13291;40.472;-3.878;2022-09-16T07:01:12;3.50;;;1.40;;
7905;SDS011;13291;40.472;-3.878;2022-09-16T07:03:41;4.27;;;1.10;;
7905;SDS011;13291;40.472;-3.878;2022-09-16T07:06:10;2.50;;;1.00;;
7905;SDS011;13291;40.472;-3.878;2022-09-16T07:08:38;2.87;;;1.10;;
7905;SDS011;13291;40.472;-3.878;2022-09-16T07:11:07;2.53;;;1.00;;
7905;SDS011;13291;40.472;-3.878;2022-09-16T07:13:37;2.50;;;1.50;;
7905;SDS011;13291;40.472;-3.878;2022-09-16T07:16:06;2.60;;;1.33;;
7905;SDS011;13291;40.472;-3.878;2022-09-16T07:18:35;2.97;;;1.17;;
7905;SDS011;13291;40.472;-3.878;2022-09-16T07:21:03;2.93;;;1.50;;
7905;SDS011;13291;40.472;-3.878;2022-09-16T07:23:31;1.97;;;1.10;;
7905;SDS011;13291;40.472;-3.878;2022-09-16T07:25:59;2.70;;;0.93;;
7905;SDS011;13291;40.472;-3.878;2022-09-16T07:28:27;4.50;;;0.90;;
7905;SDS011;13291;40.472;-3.878;2022-09-16T07:30:55;0.90;;;0.77;;
7905;SDS011;13291;40.472;-3.878;2022-09-16T07:33:23;1.20;;;0.90;;
7905;SDS011;13291;40.472;-3.878;2022-09-16T07:35:50;1.40;;;0.80;;
7905;SDS011;13291;40.472;-3.878;2022-09-16T07:38:17;2.97;;;0.80;;
7905;SDS011;13291;40.472;-3.878;2022-09-16T07:40:44;0.70;;;0.60;;
7905;SDS011;13291;40.472;-3.878;2022-09-16T07:43:10;1.20;;;0.67;;
7905;SDS011;13291;40.472;-3.878;2022-09-16T07:45:37;1.40;;;0.70;;
7905;SDS011;13291;40.472;-3.878;2022-09-16T07:48:04;1.70;;;0.90;;
7905;SDS011;13291;40.472;-3.878;2022-09-16T07:50:32;1.53;;;0.77;;
7905;SDS011;13291;40.472;-3.878;2022-09-16T07:52:59;1.73;;;0.90;;
7905;SDS011;13291;40.472;-3.878;2022-09-16T07:55:26;6.20;;;1.10;;
7905;SDS011;13291;40.472;-3.878;2022-09-16T07:57:53;2.07;;;1.10;;
7905;SDS011;13291;40.472;-3.878;2022-09-16T08:00:20;2.03;;;0.90;;
7905;SDS011;13291;40.472;-3.878;2022-09-16T08:02:47;2.67;;;1.00;;
7905;SDS011;13291;40.472;-3.878;2022-09-16T08:05:14;2.47;;;0.60;;
7905;SDS011;13291;40.472;-3.878;2022-09-16T08:07:42;1.47;;;1.00;;
7905;SDS011;13291;40.472;-3.878;2022-09-16T08:10:09;2.67;;;0.90;;
7905;SDS011;13291;40.472;-3.878;2022-09-16T08:12:36;2.43;;;0.90;;
7905;SDS011;13291;40.472;-3.878;2022-09-16T08:15:03;4.20;;;0.90;;
7905;SDS011;13291;40.472;-3.878;2022-09-16T08:17:31;1.53;;;0.90;;
7905;SDS011;13291;40.472;-3.878;2022-09-16T08:19:58;1.60;;;0.80;;
7905;SDS011;13291;40.472;-3.878;2022-09-16T08:22:25;2.00;;;0.87;;
7905;SDS011;13291;40.472;-3.878;2022-09-16T08:24:53;1.30;;;0.83;;
7905;SDS011;13291;40.472;-3.878;2022-09-16T08:27:20;1.60;;;0.97;;
7905;SDS011;13291;40.472;-3.878;2022-09-16T08:29:46;4.83;;;1.03;;
7905;SDS011;13291;40.472;-3.878;2022-09-16T08:32:13;2.83;;;0.87;;
7905;SDS011;13291;40.472;-3.878;2022-09-16T08:34:40;1.30;;;0.97;;
7905;SDS011;13291;40.472;-3.878;2022-09-16T08:37:07;2.00;;;0.60;;
7905;SDS011;13291;40.472;-3.878;2022-09-16T08:39:34;3.53;;;0.70;;
7905;SDS011;13291;40.472;-3.878;2022-09-16T08:42:08;0.90;;;0.77;;
7905;SDS011;13291;40.472;-3.878;2022-09-16T08:44:55;1.20;;;0.80;;
7905;SDS011;13291;40.472;-3.878;2022-09-16T08:47:35;1.17;;;0.70;;
7905;SDS011;13291;40.472;-3.878;2022-09-16T08:50:15;1.00;;;0.73;;
7905;SDS011;13291;40.472;-3.878;2022-09-16T08:52:44;1.70;;;0.90;;
7905;SDS011;13291;40.472;-3.878;2022-09-16T08:55:13;1.40;;;0.80;;
7905;SDS011;13291;40.472;-3.878;2022-09-16T08:57:47;1.10;;;0.80;;
7905;SDS011;13291;40.472;-3.878;2022-09-16T09:00:21;1.30;;;1.20;;
7905;SDS011;13291;40.472;-3.878;2022-09-16T09:02:49;1.23;;;1.13;;
7905;SDS011;13291;40.472;-3.878;2022-09-16T09:05:22;1.17;;;1.07;;
7905;SDS011;13291;40.472;-3.878;2022-09-16T09:08:06;0.90;;;0.70;;
7905;SDS011;13291;40.472;-3.878;2022-09-16T09:10:47;1.10;;;0.70;;
7905;SDS011;13291;40.472;-3.878;2022-09-16T09:13:25;2.53;;;0.70;;
7905;SDS011;13291;40.472;-3.878;2022-09-16T09:16:02;2.13;;;0.70;;
7905;SDS011;13291;40.472;-3.878;2022-09-16T09:18:39;3.10;;;1.10;;
7905;SDS011;13291;40.472;-3.878;2022-09-16T09:21:17;6.70;;;2.80;;
7905;SDS011;13291;40.472;-3.878;2022-09-16T09:23:59;24.70;;;7.33;;
7905;SDS011;13291;40.472;-3.878;2022-09-16T09:26:40;21.40;;;5.13;;
7905;SDS011;13291;40.472;-3.878;2022-09-16T09:29:24;10.20;;;4.37;;
7905;SDS011;13291;40.472;-3.878;2022-09-16T09:32:05;31.57;;;9.10;;
7905;SDS011;13291;40.472;-3.878;2022-09-16T09:34:46;10.17;;;2.50;;
7905;SDS011;13291;40.472;-3.878;2022-09-16T09:37:29;5.03;;;1.30;;
7905;SDS011;13291;40.472;-3.878;2022-09-16T09:40:08;2.03;;;1.00;;
7905;SDS011;13291;40.472;-3.878;2022-09-16T09:42:40;16.33;;;3.83;;
7905;SDS011;13291;40.472;-3.878;2022-09-16T09:45:15;16.10;;;3.37;;
7905;SDS011;13291;40.472;-3.878;2022-09-16T09:47:47;2.70;;;1.20;;
7905;SDS011;13291;40.472;-3.878;2022-09-16T09:50:18;2.60;;;1.37;;
7905;SDS011;13291;40.472;-3.878;2022-09-16T09:52:51;5.27;;;1.50;;
7905;SDS011;13291;40.472;-3.878;2022-09-16T09:55:24;3.93;;;1.53;;
7905;SDS011;13291;40.472;-3.878;2022-09-16T09:58:04;2.30;;;1.13;;
7905;SDS011;13291;40.472;-3.878;2022-09-16T10:00:42;1.47;;;0.70;;
7905;SDS011;13291;40.472;-3.878;2022-09-16T10:03:10;1.27;;;1.03;;
7905;SDS011;13291;40.472;-3.878;2022-09-16T10:05:39;1.87;;;0.93;;
7905;SDS011;13291;40.472;-3.878;2022-09-16T10:08:11;2.97;;;0.90;;
7905;SDS011;13291;40.472;-3.878;2022-09-16T10:10:45;1.13;;;0.70;;
7905;SDS011;13291;40.472;-3.878;2022-09-16T10:13:14;2.50;;;1.07;;
7905;SDS011;13291;40.472;-3.878;2022-09-16T10:15:43;1.13;;;0.80;;
7905;SDS011;13291;40.472;-3.878;2022-09-16T10:18:11;1.10;;;0.70;;
7905;SDS011;13291;40.472;-3.878;2022-09-16T10:20:41;4.90;;;1.00;;
7905;SDS011;13291;40.472;-3.878;2022-09-16T10:23:11;2.20;;;1.00;;
7905;SDS011;13291;40.472;-3.878;2022-09-16T10:25:39;1.30;;;1.13;;
7905;SDS011;13291;40.472;-3.878;2022-09-16T10:28:17;1.90;;;0.70;;
7905;SDS011;13291;40.472;-3.878;2022-09-16T10:30:47;1.53;;;0.87;;
7905;SDS011;13291;40.472;-3.878;2022-09-16T10:33:19;1.77;;;1.03;;
7905;SDS011;13291;40.472;-3.878;2022-09-16T10:35:51;1.60;;;1.30;;
7905;SDS011;13291;40.472;-3.878;2022-09-16T10:38:22;1.00;;;0.87;;
7905;SDS011;13291;40.472;-3.878;2022-09-16T10:40:51;1.03;;;0.93;;
7905;SDS011;13291;40.472;-3.878;2022-09-16T10:43:19;1.80;;;0.80;;
7905;SDS011;13291;40.472;-3.878;2022-09-16T10:45:49;3.60;;;1.27;;
7905;SDS011;13291;40.472;-3.878;2022-09-16T10:48:19;3.40;;;1.50;;
7905;SDS011;13291;40.472;-3.878;2022-09-16T10:50:52;2.20;;;1.30;;
7905;SDS011;13291;40.472;-3.878;2022-09-16T10:53:20;3.27;;;0.97;;
7905;SDS011;13291;40.472;-3.878;2022-09-16T10:55:55;1.23;;;0.87;;
7905;SDS011;13291;40.472;-3.878;2022-09-16T10:58:23;1.80;;;0.83;;
7905;SDS011;13291;40.472;-3.878;2022-09-16T11:00:54;1.23;;;0.63;;
7905;SDS011;13291;40.472;-3.878;2022-09-16T11:03:36;0.73;;;0.67;;
7905;SDS011;13291;40.472;-3.878;2022-09-16T11:06:22;1.30;;;0.70;;
7905;SDS011;13291;40.472;-3.878;2022-09-16T11:09:01;0.93;;;0.60;;
7905;SDS011;13291;40.472;-3.878;2022-09-16T11:11:39;1.63;;;1.00;;
7905;SDS011;13291;40.472;-3.878;2022-09-16T11:14:18;1.40;;;0.87;;
7905;SDS011;13291;40.472;-3.878;2022-09-16T11:17:00;1.00;;;0.70;;
7905;SDS011;13291;40.472;-3.878;2022-09-16T11:19:38;2.00;;;0.73;;
7905;SDS011;13291;40.472;-3.878;2022-09-16T11:22:17;1.40;;;0.80;;
7905;SDS011;13291;40.472;-3.878;2022-09-16T11:27:54;1.43;;;0.60;;
7905;SDS011;13291;40.472;-3.878;2022-09-16T11:30:39;3.07;;;0.70;;
7905;SDS011;13291;40.472;-3.878;2022-09-16T11:33:19;1.80;;;0.80;;
7905;SDS011;13291;40.472;-3.878;2022-09-16T11:36:14;2.03;;;0.60;;
7905;SDS011;13291;40.472;-3.878;2022-09-16T11:38:55;1.80;;;0.67;;
7905;SDS011;13291;40.472;-3.878;2022-09-16T11:41:32;1.07;;;0.73;;
7905;SDS011;13291;40.472;-3.878;2022-09-16T11:44:09;1.77;;;0.87;;
7905;SDS011;13291;40.472;-3.878;2022-09-16T11:46:51;1.10;;;0.77;;
7905;SDS011;13291;40.472;-3.878;2022-09-16T11:49:32;0.90;;;0.70;;
7905;SDS011;13291;40.472;-3.878;2022-09-16T11:52:15;0.70;;;0.50;;
7905;SDS011;13291;40.472;-3.878;2022-09-16T11:54:59;1.20;;;0.70;;
7905;SDS011;13291;40.472;-3.878;2022-09-16T11:57:40;2.30;;;0.70;;
7905;SDS011;13291;40.472;-3.878;2022-09-16T12:00:14;0.90;;;0.80;;
7905;SDS011;13291;40.472;-3.878;2022-09-16T12:02:44;0.90;;;0.80;;
7905;SDS011;13291;40.472;-3.878;2022-09-16T12:05:20;0.70;;;0.60;;
7905;SDS011;13291;40.472;-3.878;2022-09-16T12:07:51;0.97;;;0.60;;
7905;SDS011;13291;40.472;-3.878;2022-09-16T12:10:24;2.00;;;0.80;;
7905;SDS011;13291;40.472;-3.878;2022-09-16T12:12:54;1.07;;;0.70;;
7905;SDS011;13291;40.472;-3.878;2022-09-16T12:15:30;0.60;;;0.50;;
7905;SDS011;13291;40.472;-3.878;2022-09-16T12:18:02;2.43;;;0.73;;
7905;SDS011;13291;40.472;-3.878;2022-09-16T12:20:37;2.40;;;0.60;;
7905;SDS011;13291;40.472;-3.878;2022-09-16T12:23:09;1.07;;;0.60;;
7905;SDS011;13291;40.472;-3.878;2022-09-16T12:25:43;1.30;;;0.80;;
7905;SDS011;13291;40.472;-3.878;2022-09-16T12:28:30;1.70;;;0.80;;
7905;SDS011;13291;40.472;-3.878;2022-09-16T12:31:02;1.20;;;0.67;;
7905;SDS011;13291;40.472;-3.878;2022-09-16T12:33:38;1.63;;;0.60;;
7905;SDS011;13291;40.472;-3.878;2022-09-16T12:36:11;0.80;;;0.57;;
7905;SDS011;13291;40.472;-3.878;2022-09-16T12:38:41;1.67;;;0.73;;
7905;SDS011;13291;40.472;-3.878;2022-09-16T12:41:15;2.73;;;0.80;;
7905;SDS011;13291;40.472;-3.878;2022-09-16T12:44:15;1.07;;;0.67;;
7905;SDS011;13291;40.472;-3.878;2022-09-16T12:47:02;0.80;;;0.60;;
7905;SDS011;13291;40.472;-3.878;2022-09-16T12:49:45;1.77;;;0.80;;
7905;SDS011;13291;40.472;-3.878;2022-09-16T12:52:48;0.97;;;0.50;;
7905;SDS011;13291;40.472;-3.878;2022-09-16T12:55:37;0.80;;;0.70;;
7905;SDS011;13291;40.472;-3.878;2022-09-16T12:58:20;1.23;;;0.60;;
7905;SDS011;13291;40.472;-3.878;2022-09-16T13:01:00;0.90;;;0.60;;
7905;SDS011;13291;40.472;-3.878;2022-09-16T13:03:39;0.70;;;0.50;;
7905;SDS011;13291;40.472;-3.878;2022-09-16T13:06:14;0.80;;;0.70;;
7905;SDS011;13291;40.472;-3.878;2022-09-16T13:08:48;1.33;;;0.60;;
7905;SDS011;13291;40.472;-3.878;2022-09-16T13:11:17;1.87;;;0.73;;
7905;SDS011;13291;40.472;-3.878;2022-09-16T13:13:47;1.10;;;0.60;;
7905;SDS011;13291;40.472;-3.878;2022-09-16T13:16:26;1.17;;;0.73;;
7905;SDS011;13291;40.472;-3.878;2022-09-16T13:19:23;1.63;;;0.60;;
7905;SDS011;13291;40.472;-3.878;2022-09-16T13:22:14;1.67;;;0.90;;
7905;SDS011;13291;40.472;-3.878;2022-09-16T13:24:47;1.43;;;0.63;;
7905;SDS011;13291;40.472;-3.878;2022-09-16T13:27:29;0.70;;;0.60;;
7905;SDS011;13291;40.472;-3.878;2022-09-16T13:32:58;1.13;;;0.63;;
7905;SDS011;13291;40.472;-3.878;2022-09-16T13:35:37;1.60;;;0.70;;
7905;SDS011;13291;40.472;-3.878;2022-09-16T13:38:22;4.13;;;1.00;;
7905;SDS011;13291;40.472;-3.878;2022-09-16T13:40:53;1.33;;;0.60;;
7905;SDS011;13291;40.472;-3.878;2022-09-16T13:43:28;0.90;;;0.60;;
7905;SDS011;13291;40.472;-3.878;2022-09-16T13:46:00;1.23;;;0.60;;
7905;SDS011;13291;40.472;-3.878;2022-09-16T13:48:34;1.40;;;0.87;;
7905;SDS011;13291;40.472;-3.878;2022-09-16T13:51:06;1.20;;;0.70;;
7905;SDS011;13291;40.472;-3.878;2022-09-16T13:53:41;2.40;;;0.80;;
7905;SDS011;13291;40.472;-3.878;2022-09-16T13:56:15;0.90;;;0.60;;
7905;SDS011;13291;40.472;-3.878;2022-09-16T13:58:55;2.37;;;0.80;;
7905;SDS011;13291;40.472;-3.878;2022-09-16T14:01:32;1.70;;;0.60;;
7905;SDS011;13291;40.472;-3.878;2022-09-16T14:04:05;1.07;;;0.60;;
7905;SDS011;13291;40.472;-3.878;2022-09-16T14:06:44;1.97;;;0.70;;
7905;SDS011;13291;40.472;-3.878;2022-09-16T14:12:10;0.60;;;0.57;;
7905;SDS011;13291;40.472;-3.878;2022-09-16T14:14:43;1.13;;;0.60;;
7905;SDS011;13291;40.472;-3.878;2022-09-16T14:17:15;1.10;;;0.60;;
7905;SDS011;13291;40.472;-3.878;2022-09-16T14:19:45;1.50;;;0.77;;
7905;SDS011;13291;40.472;-3.878;2022-09-16T14:22:16;1.73;;;0.60;;
7905;SDS011;13291;40.472;-3.878;2022-09-16T14:24:45;1.40;;;0.70;;
7905;SDS011;13291;40.472;-3.878;2022-09-16T14:27:20;0.80;;;0.60;;
7905;SDS011;13291;40.472;-3.878;2022-09-16T14:29:53;0.93;;;0.70;;
7905;SDS011;13291;40.472;-3.878;2022-09-16T14:32:22;0.70;;;0.60;;
7905;SDS011;13291;40.472;-3.878;2022-09-16T14:34:50;1.73;;;0.90;;
7905;SDS011;13291;40.472;-3.878;2022-09-16T14:37:18;1.27;;;0.70;;
7905;SDS011;13291;40.472;-3.878;2022-09-16T14:39:46;1.20;;;0.80;;
7905;SDS011;13291;40.472;-3.878;2022-09-16T14:42:14;1.23;;;0.60;;
7905;SDS011;13291;40.472;-3.878;2022-09-16T14:44:47;0.90;;;0.67;;
7905;SDS011;13291;40.472;-3.878;2022-09-16T14:47:17;2.10;;;0.70;;
7905;SDS011;13291;40.472;-3.878;2022-09-16T14:49:49;1.03;;;0.60;;
7905;SDS011;13291;40.472;-3.878;2022-09-16T14:52:21;1.57;;;0.53;;
7905;SDS011;13291;40.472;-3.878;2022-09-16T14:54:48;1.27;;;0.67;;
7905;SDS011;13291;40.472;-3.878;2022-09-16T14:57:16;0.93;;;0.70;;
7905;SDS011;13291;40.472;-3.878;2022-09-16T14:59:48;0.93;;;0.60;;
7905;SDS011;13291;40.472;-3.878;2022-09-16T15:02:19;1.83;;;0.60;;
7905;SDS011;13291;40.472;-3.878;2022-09-16T15:04:50;1.53;;;0.60;;
7905;SDS011;13291;40.472;-3.878;2022-09-16T15:07:20;0.87;;;0.70;;
7905;SDS011;13291;40.472;-3.878;2022-09-16T15:09:52;1.50;;;1.10;;
7905;SDS011;13291;40.472;-3.878;2022-09-16T15:12:24;1.03;;;0.80;;
7905;SDS011;13291;40.472;-3.878;2022-09-16T15:14:54;1.43;;;0.77;;
7905;SDS011;13291;40.472;-3.878;2022-09-16T15:17:23;0.80;;;0.60;;
7905;SDS011;13291;40.472;-3.878;2022-09-16T15:19:53;0.67;;;0.50;;
7905;SDS011;13291;40.472;-3.878;2022-09-16T15:22:23;0.90;;;0.70;;
7905;SDS011;13291;40.472;-3.878;2022-09-16T15:24:51;1.70;;;0.73;;